sensor_id;sensor_type;location;lat;lon;timestamp;P1;durP1;ratioP1;P2;durP2;ratioP2
70929;SDS011;58588;48.102;19.682;2023-08-31T00:00:43;5.55;;;2.28;;
70929;SDS011;58588;48.102;19.682;2023-08-31T00:03:46;5.60;;;2.20;;
70929;SDS011;58588;48.102;19.682;2023-08-31T00:06:48;5.45;;;2.35;;
70929;SDS011;58588;48.102;19.682;2023-08-31T00:09:51;6.30;;;2.67;;
70929;SDS011;58588;48.102;19.682;2023-08-31T00:12:52;5.70;;;2.33;;
70929;SDS011;58588;48.102;19.682;2023-08-31T00:15:55;7.05;;;2.80;;
70929;SDS011;58588;48.102;19.682;2023-08-31T00:18:59;6.75;;;2.80;;
70929;SDS011;58588;48.102;19.682;2023-08-31T00:22:01;7.10;;;2.58;;
70929;SDS011;58588;48.102;19.682;2023-08-31T00:25:04;5.87;;;2.37;;
70929;SDS011;58588;48.102;19.682;2023-08-31T00:28:08;6.63;;;2.07;;
70929;SDS011;58588;48.102;19.682;2023-08-31T00:31:10;5.75;;;2.20;;
70929;SDS011;58588;48.102;19.682;2023-08-31T00:34:13;5.90;;;2.28;;
70929;SDS011;58588;48.102;19.682;2023-08-31T00:37:17;5.82;;;2.15;;
70929;SDS011;58588;48.102;19.682;2023-08-31T00:40:21;5.67;;;2.20;;
70929;SDS011;58588;48.102;19.682;2023-08-31T00:43:23;8.00;;;2.90;;
70929;SDS011;58588;48.102;19.682;2023-08-31T00:46:25;5.75;;;2.25;;
70929;SDS011;58588;48.102;19.682;2023-08-31T00:49:30;5.80;;;2.38;;
70929;SDS011;58588;48.102;19.682;2023-08-31T00:52:32;5.00;;;1.92;;
70929;SDS011;58588;48.102;19.682;2023-08-31T00:55:35;6.27;;;2.40;;
70929;SDS011;58588;48.102;19.682;2023-08-31T00:58:39;6.40;;;2.50;;
70929;SDS011;58588;48.102;19.682;2023-08-31T01:01:41;5.45;;;2.22;;
70929;SDS011;58588;48.102;19.682;2023-08-31T01:04:58;7.00;;;2.42;;
70929;SDS011;58588;48.102;19.682;2023-08-31T01:08:10;8.45;;;2.40;;
70929;SDS011;58588;48.102;19.682;2023-08-31T01:11:22;6.67;;;2.60;;
70929;SDS011;58588;48.102;19.682;2023-08-31T01:14:38;6.67;;;2.40;;
70929;SDS011;58588;48.102;19.682;2023-08-31T01:17:46;6.15;;;2.45;;
70929;SDS011;58588;48.102;19.682;2023-08-31T01:20:55;7.05;;;2.40;;
70929;SDS011;58588;48.102;19.682;2023-08-31T01:24:04;7.10;;;2.80;;
70929;SDS011;58588;48.102;19.682;2023-08-31T01:27:07;7.87;;;2.90;;
70929;SDS011;58588;48.102;19.682;2023-08-31T01:30:09;6.13;;;2.80;;
70929;SDS011;58588;48.102;19.682;2023-08-31T01:33:12;6.18;;;2.70;;
70929;SDS011;58588;48.102;19.682;2023-08-31T01:36:15;6.75;;;3.08;;
70929;SDS011;58588;48.102;19.682;2023-08-31T01:39:23;7.88;;;2.88;;
70929;SDS011;58588;48.102;19.682;2023-08-31T01:42:34;7.70;;;2.70;;
70929;SDS011;58588;48.102;19.682;2023-08-31T01:45:37;7.87;;;3.00;;
70929;SDS011;58588;48.102;19.682;2023-08-31T01:48:40;6.97;;;3.13;;
70929;SDS011;58588;48.102;19.682;2023-08-31T01:51:42;6.88;;;2.75;;
70929;SDS011;58588;48.102;19.682;2023-08-31T01:54:45;7.55;;;3.25;;
70929;SDS011;58588;48.102;19.682;2023-08-31T01:57:47;7.83;;;3.07;;
70929;SDS011;58588;48.102;19.682;2023-08-31T02:00:49;7.37;;;3.47;;
70929;SDS011;58588;48.102;19.682;2023-08-31T02:03:51;8.18;;;3.35;;
70929;SDS011;58588;48.102;19.682;2023-08-31T02:06:53;9.50;;;3.65;;
70929;SDS011;58588;48.102;19.682;2023-08-31T02:09:56;6.72;;;3.00;;
70929;SDS011;58588;48.102;19.682;2023-08-31T02:12:59;8.80;;;3.33;;
70929;SDS011;58588;48.102;19.682;2023-08-31T02:16:01;9.53;;;3.43;;
70929;SDS011;58588;48.102;19.682;2023-08-31T02:19:02;7.80;;;3.78;;
70929;SDS011;58588;48.102;19.682;2023-08-31T02:22:04;7.65;;;3.55;;
70929;SDS011;58588;48.102;19.682;2023-08-31T02:25:08;7.63;;;3.60;;
70929;SDS011;58588;48.102;19.682;2023-08-31T02:28:10;8.10;;;3.70;;
70929;SDS011;58588;48.102;19.682;2023-08-31T02:31:13;8.90;;;3.57;;
70929;SDS011;58588;48.102;19.682;2023-08-31T02:34:15;8.55;;;3.67;;
70929;SDS011;58588;48.102;19.682;2023-08-31T02:37:17;7.82;;;3.70;;
70929;SDS011;58588;48.102;19.682;2023-08-31T02:40:20;9.13;;;3.78;;
70929;SDS011;58588;48.102;19.682;2023-08-31T02:43:22;8.87;;;4.00;;
70929;SDS011;58588;48.102;19.682;2023-08-31T02:46:25;8.93;;;3.77;;
70929;SDS011;58588;48.102;19.682;2023-08-31T02:49:27;10.98;;;3.60;;
70929;SDS011;58588;48.102;19.682;2023-08-31T02:52:29;9.07;;;3.72;;
70929;SDS011;58588;48.102;19.682;2023-08-31T02:55:33;7.90;;;3.72;;
70929;SDS011;58588;48.102;19.682;2023-08-31T02:58:35;8.63;;;3.60;;
70929;SDS011;58588;48.102;19.682;2023-08-31T03:01:37;8.47;;;3.67;;
70929;SDS011;58588;48.102;19.682;2023-08-31T03:04:39;9.00;;;3.55;;
70929;SDS011;58588;48.102;19.682;2023-08-31T03:07:41;10.63;;;4.00;;
70929;SDS011;58588;48.102;19.682;2023-08-31T03:10:44;8.27;;;3.78;;
70929;SDS011;58588;48.102;19.682;2023-08-31T03:13:46;8.40;;;3.97;;
70929;SDS011;58588;48.102;19.682;2023-08-31T03:16:48;10.77;;;3.90;;
70929;SDS011;58588;48.102;19.682;2023-08-31T03:19:50;8.93;;;4.18;;
70929;SDS011;58588;48.102;19.682;2023-08-31T03:22:52;10.30;;;3.90;;
70929;SDS011;58588;48.102;19.682;2023-08-31T03:25:55;8.13;;;3.65;;
70929;SDS011;58588;48.102;19.682;2023-08-31T03:28:57;9.50;;;4.13;;
70929;SDS011;58588;48.102;19.682;2023-08-31T03:31:59;9.13;;;4.70;;
70929;SDS011;58588;48.102;19.682;2023-08-31T03:35:02;8.50;;;4.00;;
70929;SDS011;58588;48.102;19.682;2023-08-31T03:38:05;10.30;;;3.58;;
70929;SDS011;58588;48.102;19.682;2023-08-31T03:41:08;9.15;;;4.32;;
70929;SDS011;58588;48.102;19.682;2023-08-31T03:44:10;8.50;;;4.13;;
70929;SDS011;58588;48.102;19.682;2023-08-31T03:47:12;8.87;;;4.03;;
70929;SDS011;58588;48.102;19.682;2023-08-31T03:50:13;9.43;;;4.43;;
70929;SDS011;58588;48.102;19.682;2023-08-31T03:53:15;8.05;;;4.20;;
70929;SDS011;58588;48.102;19.682;2023-08-31T03:56:19;12.30;;;5.13;;
70929;SDS011;58588;48.102;19.682;2023-08-31T03:59:20;9.40;;;4.33;;
70929;SDS011;58588;48.102;19.682;2023-08-31T04:02:23;9.33;;;4.50;;
70929;SDS011;58588;48.102;19.682;2023-08-31T04:05:24;9.18;;;4.50;;
70929;SDS011;58588;48.102;19.682;2023-08-31T04:08:27;9.65;;;4.53;;
70929;SDS011;58588;48.102;19.682;2023-08-31T04:11:30;10.32;;;4.82;;
70929;SDS011;58588;48.102;19.682;2023-08-31T04:14:32;10.53;;;4.93;;
70929;SDS011;58588;48.102;19.682;2023-08-31T04:17:34;9.83;;;4.83;;
70929;SDS011;58588;48.102;19.682;2023-08-31T04:20:35;10.55;;;5.47;;
70929;SDS011;58588;48.102;19.682;2023-08-31T04:23:38;10.13;;;5.72;;
70929;SDS011;58588;48.102;19.682;2023-08-31T04:26:41;10.52;;;6.05;;
70929;SDS011;58588;48.102;19.682;2023-08-31T04:29:45;12.10;;;6.23;;
70929;SDS011;58588;48.102;19.682;2023-08-31T04:32:48;11.43;;;6.20;;
70929;SDS011;58588;48.102;19.682;2023-08-31T04:35:49;12.77;;;6.70;;
70929;SDS011;58588;48.102;19.682;2023-08-31T04:38:51;11.35;;;6.32;;
70929;SDS011;58588;48.102;19.682;2023-08-31T04:41:55;11.27;;;6.10;;
70929;SDS011;58588;48.102;19.682;2023-08-31T04:44:57;11.63;;;6.87;;
70929;SDS011;58588;48.102;19.682;2023-08-31T04:47:59;11.50;;;6.30;;
70929;SDS011;58588;48.102;19.682;2023-08-31T04:51:00;10.50;;;5.90;;
70929;SDS011;58588;48.102;19.682;2023-08-31T04:54:04;11.38;;;6.60;;
70929;SDS011;58588;48.102;19.682;2023-08-31T04:57:07;11.60;;;5.95;;
70929;SDS011;58588;48.102;19.682;2023-08-31T05:00:10;11.10;;;5.77;;
70929;SDS011;58588;48.102;19.682;2023-08-31T05:03:13;10.70;;;5.80;;
70929;SDS011;58588;48.102;19.682;2023-08-31T05:06:15;10.27;;;5.45;;
70929;SDS011;58588;48.102;19.682;2023-08-31T05:09:17;10.23;;;5.60;;
70929;SDS011;58588;48.102;19.682;2023-08-31T05:12:20;9.70;;;5.60;;
70929;SDS011;58588;48.102;19.682;2023-08-31T05:15:22;9.00;;;4.70;;
70929;SDS011;58588;48.102;19.682;2023-08-31T05:18:27;9.23;;;5.20;;
70929;SDS011;58588;48.102;19.682;2023-08-31T05:21:29;10.18;;;5.30;;
70929;SDS011;58588;48.102;19.682;2023-08-31T05:24:31;9.52;;;4.80;;
70929;SDS011;58588;48.102;19.682;2023-08-31T05:27:34;9.63;;;5.28;;
70929;SDS011;58588;48.102;19.682;2023-08-31T05:30:36;12.47;;;5.60;;
70929;SDS011;58588;48.102;19.682;2023-08-31T05:33:38;9.00;;;4.70;;
70929;SDS011;58588;48.102;19.682;2023-08-31T05:36:40;9.82;;;4.88;;
70929;SDS011;58588;48.102;19.682;2023-08-31T05:39:42;9.13;;;5.15;;
70929;SDS011;58588;48.102;19.682;2023-08-31T05:42:50;9.32;;;4.63;;
70929;SDS011;58588;48.102;19.682;2023-08-31T05:45:54;9.47;;;4.80;;
70929;SDS011;58588;48.102;19.682;2023-08-31T05:48:56;10.00;;;4.97;;
70929;SDS011;58588;48.102;19.682;2023-08-31T05:51:58;9.05;;;4.70;;
70929;SDS011;58588;48.102;19.682;2023-08-31T05:55:00;10.13;;;4.25;;
70929;SDS011;58588;48.102;19.682;2023-08-31T05:58:03;8.00;;;4.20;;
70929;SDS011;58588;48.102;19.682;2023-08-31T06:01:05;9.13;;;4.60;;
70929;SDS011;58588;48.102;19.682;2023-08-31T06:04:07;8.47;;;4.37;;
70929;SDS011;58588;48.102;19.682;2023-08-31T06:07:10;8.40;;;4.22;;
70929;SDS011;58588;48.102;19.682;2023-08-31T06:10:12;8.65;;;4.43;;
70929;SDS011;58588;48.102;19.682;2023-08-31T06:13:16;10.10;;;4.50;;
70929;SDS011;58588;48.102;19.682;2023-08-31T06:16:18;9.30;;;4.90;;
70929;SDS011;58588;48.102;19.682;2023-08-31T06:19:20;8.17;;;4.37;;
70929;SDS011;58588;48.102;19.682;2023-08-31T06:22:22;8.23;;;4.70;;
70929;SDS011;58588;48.102;19.682;2023-08-31T06:25:24;10.18;;;5.13;;
70929;SDS011;58588;48.102;19.682;2023-08-31T06:28:27;9.32;;;5.18;;
70929;SDS011;58588;48.102;19.682;2023-08-31T06:31:29;9.50;;;4.73;;
70929;SDS011;58588;48.102;19.682;2023-08-31T06:34:31;7.83;;;4.53;;
70929;SDS011;58588;48.102;19.682;2023-08-31T06:37:33;8.52;;;4.50;;
70929;SDS011;58588;48.102;19.682;2023-08-31T06:40:35;10.45;;;4.57;;
70929;SDS011;58588;48.102;19.682;2023-08-31T06:43:38;8.65;;;4.47;;
70929;SDS011;58588;48.102;19.682;2023-08-31T06:46:40;8.20;;;4.50;;
70929;SDS011;58588;48.102;19.682;2023-08-31T06:49:42;8.07;;;4.30;;
70929;SDS011;58588;48.102;19.682;2023-08-31T06:52:44;8.43;;;4.25;;
70929;SDS011;58588;48.102;19.682;2023-08-31T06:55:46;7.65;;;4.07;;
70929;SDS011;58588;48.102;19.682;2023-08-31T06:58:50;7.22;;;3.53;;
70929;SDS011;58588;48.102;19.682;2023-08-31T07:01:51;7.30;;;3.72;;
70929;SDS011;58588;48.102;19.682;2023-08-31T07:04:54;7.10;;;3.53;;
70929;SDS011;58588;48.102;19.682;2023-08-31T07:07:56;8.95;;;3.90;;
70929;SDS011;58588;48.102;19.682;2023-08-31T07:10:58;6.97;;;3.47;;
70929;SDS011;58588;48.102;19.682;2023-08-31T07:14:01;8.52;;;3.38;;
70929;SDS011;58588;48.102;19.682;2023-08-31T07:17:03;9.18;;;3.20;;
70929;SDS011;58588;48.102;19.682;2023-08-31T07:20:06;8.40;;;3.23;;
70929;SDS011;58588;48.102;19.682;2023-08-31T07:23:09;6.82;;;3.28;;
70929;SDS011;58588;48.102;19.682;2023-08-31T07:26:11;6.70;;;3.08;;
70929;SDS011;58588;48.102;19.682;2023-08-31T07:29:14;6.57;;;2.80;;
70929;SDS011;58588;48.102;19.682;2023-08-31T07:32:16;6.30;;;3.08;;
70929;SDS011;58588;48.102;19.682;2023-08-31T07:35:18;6.87;;;3.30;;
70929;SDS011;58588;48.102;19.682;2023-08-31T07:38:20;6.80;;;3.00;;
70929;SDS011;58588;48.102;19.682;2023-08-31T07:41:22;6.65;;;2.88;;
70929;SDS011;58588;48.102;19.682;2023-08-31T07:44:25;6.88;;;2.90;;
70929;SDS011;58588;48.102;19.682;2023-08-31T07:47:27;6.35;;;2.88;;
70929;SDS011;58588;48.102;19.682;2023-08-31T07:50:29;7.03;;;2.60;;
70929;SDS011;58588;48.102;19.682;2023-08-31T07:53:30;5.82;;;2.78;;
70929;SDS011;58588;48.102;19.682;2023-08-31T07:56:32;5.97;;;2.70;;
70929;SDS011;58588;48.102;19.682;2023-08-31T07:59:36;6.03;;;2.50;;
70929;SDS011;58588;48.102;19.682;2023-08-31T08:02:39;6.15;;;2.80;;
70929;SDS011;58588;48.102;19.682;2023-08-31T08:05:41;6.57;;;2.60;;
70929;SDS011;58588;48.102;19.682;2023-08-31T08:08:43;5.80;;;2.80;;
70929;SDS011;58588;48.102;19.682;2023-08-31T08:11:45;7.40;;;2.67;;
70929;SDS011;58588;48.102;19.682;2023-08-31T08:14:48;5.63;;;2.65;;
70929;SDS011;58588;48.102;19.682;2023-08-31T08:17:50;6.40;;;2.67;;
70929;SDS011;58588;48.102;19.682;2023-08-31T08:20:53;5.50;;;2.43;;
70929;SDS011;58588;48.102;19.682;2023-08-31T08:23:55;5.60;;;2.47;;
70929;SDS011;58588;48.102;19.682;2023-08-31T08:26:57;9.73;;;2.85;;
70929;SDS011;58588;48.102;19.682;2023-08-31T08:30:00;5.53;;;2.50;;
70929;SDS011;58588;48.102;19.682;2023-08-31T08:33:03;5.20;;;2.10;;
70929;SDS011;58588;48.102;19.682;2023-08-31T08:36:05;5.50;;;2.50;;
70929;SDS011;58588;48.102;19.682;2023-08-31T08:39:07;6.00;;;2.55;;
70929;SDS011;58588;48.102;19.682;2023-08-31T08:42:09;5.75;;;2.47;;
70929;SDS011;58588;48.102;19.682;2023-08-31T08:45:13;6.40;;;2.50;;
70929;SDS011;58588;48.102;19.682;2023-08-31T08:48:16;5.50;;;2.28;;
70929;SDS011;58588;48.102;19.682;2023-08-31T08:51:19;6.90;;;2.40;;
70929;SDS011;58588;48.102;19.682;2023-08-31T08:54:22;5.57;;;2.10;;
70929;SDS011;58588;48.102;19.682;2023-08-31T08:57:25;6.03;;;1.98;;
70929;SDS011;58588;48.102;19.682;2023-08-31T09:00:28;5.50;;;1.98;;
70929;SDS011;58588;48.102;19.682;2023-08-31T09:03:31;5.38;;;1.83;;
70929;SDS011;58588;48.102;19.682;2023-08-31T09:06:32;5.17;;;2.17;;
70929;SDS011;58588;48.102;19.682;2023-08-31T09:09:42;5.40;;;2.20;;
70929;SDS011;58588;48.102;19.682;2023-08-31T09:12:50;5.25;;;2.35;;
70929;SDS011;58588;48.102;19.682;2023-08-31T09:15:53;5.53;;;2.22;;
70929;SDS011;58588;48.102;19.682;2023-08-31T09:18:55;8.20;;;2.15;;
70929;SDS011;58588;48.102;19.682;2023-08-31T09:21:58;5.10;;;2.20;;
70929;SDS011;58588;48.102;19.682;2023-08-31T09:25:00;5.00;;;2.10;;
70929;SDS011;58588;48.102;19.682;2023-08-31T09:28:03;5.85;;;1.88;;
70929;SDS011;58588;48.102;19.682;2023-08-31T09:31:07;4.88;;;2.00;;
70929;SDS011;58588;48.102;19.682;2023-08-31T09:34:09;5.07;;;2.15;;
70929;SDS011;58588;48.102;19.682;2023-08-31T09:37:11;5.13;;;2.00;;
70929;SDS011;58588;48.102;19.682;2023-08-31T09:40:14;4.82;;;1.88;;
70929;SDS011;58588;48.102;19.682;2023-08-31T09:43:19;5.88;;;2.10;;
70929;SDS011;58588;48.102;19.682;2023-08-31T09:46:23;4.78;;;1.80;;
70929;SDS011;58588;48.102;19.682;2023-08-31T09:49:26;5.38;;;2.10;;
70929;SDS011;58588;48.102;19.682;2023-08-31T09:52:29;5.87;;;2.00;;
70929;SDS011;58588;48.102;19.682;2023-08-31T09:55:32;5.68;;;1.90;;
70929;SDS011;58588;48.102;19.682;2023-08-31T09:58:34;5.82;;;1.90;;
70929;SDS011;58588;48.102;19.682;2023-08-31T10:01:37;7.75;;;1.80;;
70929;SDS011;58588;48.102;19.682;2023-08-31T10:04:40;4.80;;;1.70;;
70929;SDS011;58588;48.102;19.682;2023-08-31T10:07:42;4.60;;;1.90;;
70929;SDS011;58588;48.102;19.682;2023-08-31T10:10:45;4.90;;;1.80;;
70929;SDS011;58588;48.102;19.682;2023-08-31T10:13:47;5.38;;;1.60;;
70929;SDS011;58588;48.102;19.682;2023-08-31T10:16:51;5.05;;;1.80;;
70929;SDS011;58588;48.102;19.682;2023-08-31T10:19:55;6.13;;;1.75;;
70929;SDS011;58588;48.102;19.682;2023-08-31T10:22:57;4.90;;;1.70;;
70929;SDS011;58588;48.102;19.682;2023-08-31T10:25:59;5.47;;;1.50;;
70929;SDS011;58588;48.102;19.682;2023-08-31T10:29:07;4.90;;;1.67;;
70929;SDS011;58588;48.102;19.682;2023-08-31T10:32:29;6.35;;;1.60;;
70929;SDS011;58588;48.102;19.682;2023-08-31T10:35:40;6.15;;;1.65;;
70929;SDS011;58588;48.102;19.682;2023-08-31T10:38:44;4.70;;;1.90;;
70929;SDS011;58588;48.102;19.682;2023-08-31T10:41:51;6.05;;;1.60;;
70929;SDS011;58588;48.102;19.682;2023-08-31T10:44:55;4.93;;;1.73;;
70929;SDS011;58588;48.102;19.682;2023-08-31T10:48:08;6.20;;;1.70;;
70929;SDS011;58588;48.102;19.682;2023-08-31T10:51:14;6.50;;;1.70;;
70929;SDS011;58588;48.102;19.682;2023-08-31T10:54:21;7.17;;;1.50;;
70929;SDS011;58588;48.102;19.682;2023-08-31T10:57:28;4.70;;;1.60;;
70929;SDS011;58588;48.102;19.682;2023-08-31T11:04:00;5.25;;;1.60;;
70929;SDS011;58588;48.102;19.682;2023-08-31T11:07:13;4.30;;;1.30;;
70929;SDS011;58588;48.102;19.682;2023-08-31T11:10:17;6.83;;;1.80;;
70929;SDS011;58588;48.102;19.682;2023-08-31T11:13:20;5.07;;;1.60;;
70929;SDS011;58588;48.102;19.682;2023-08-31T11:16:22;4.43;;;1.30;;
70929;SDS011;58588;48.102;19.682;2023-08-31T11:19:25;4.20;;;1.10;;
70929;SDS011;58588;48.102;19.682;2023-08-31T11:22:27;5.65;;;1.23;;
70929;SDS011;58588;48.102;19.682;2023-08-31T11:25:30;5.27;;;1.10;;
70929;SDS011;58588;48.102;19.682;2023-08-31T11:28:32;4.43;;;1.23;;
70929;SDS011;58588;48.102;19.682;2023-08-31T11:31:37;4.00;;;1.17;;
70929;SDS011;58588;48.102;19.682;2023-08-31T11:34:41;4.40;;;1.30;;
70929;SDS011;58588;48.102;19.682;2023-08-31T11:37:45;4.72;;;1.40;;
70929;SDS011;58588;48.102;19.682;2023-08-31T11:40:48;5.67;;;1.10;;
70929;SDS011;58588;48.102;19.682;2023-08-31T11:43:50;4.20;;;1.40;;
70929;SDS011;58588;48.102;19.682;2023-08-31T11:46:52;5.53;;;1.15;;
70929;SDS011;58588;48.102;19.682;2023-08-31T11:49:56;4.60;;;1.38;;
70929;SDS011;58588;48.102;19.682;2023-08-31T11:52:57;5.57;;;1.20;;
70929;SDS011;58588;48.102;19.682;2023-08-31T11:56:01;5.03;;;1.40;;
70929;SDS011;58588;48.102;19.682;2023-08-31T11:59:06;4.60;;;1.42;;
70929;SDS011;58588;48.102;19.682;2023-08-31T12:02:09;4.72;;;1.45;;
70929;SDS011;58588;48.102;19.682;2023-08-31T12:05:12;5.85;;;1.40;;
70929;SDS011;58588;48.102;19.682;2023-08-31T12:08:14;4.13;;;1.10;;
70929;SDS011;58588;48.102;19.682;2023-08-31T12:11:18;5.30;;;1.37;;
70929;SDS011;58588;48.102;19.682;2023-08-31T12:14:21;5.60;;;1.38;;
70929;SDS011;58588;48.102;19.682;2023-08-31T12:17:24;4.90;;;1.50;;
70929;SDS011;58588;48.102;19.682;2023-08-31T12:20:27;4.53;;;1.30;;
70929;SDS011;58588;48.102;19.682;2023-08-31T12:23:33;4.68;;;1.25;;
70929;SDS011;58588;48.102;19.682;2023-08-31T12:26:34;3.57;;;1.00;;
70929;SDS011;58588;48.102;19.682;2023-08-31T12:29:36;3.88;;;1.10;;
70929;SDS011;58588;48.102;19.682;2023-08-31T12:32:38;4.10;;;1.10;;
70929;SDS011;58588;48.102;19.682;2023-08-31T12:35:42;5.45;;;1.27;;
70929;SDS011;58588;48.102;19.682;2023-08-31T12:38:44;5.68;;;1.40;;
70929;SDS011;58588;48.102;19.682;2023-08-31T12:41:46;4.67;;;1.23;;
70929;SDS011;58588;48.102;19.682;2023-08-31T12:44:48;6.25;;;1.20;;
70929;SDS011;58588;48.102;19.682;2023-08-31T12:47:50;4.30;;;1.25;;
70929;SDS011;58588;48.102;19.682;2023-08-31T12:50:53;4.75;;;1.50;;
70929;SDS011;58588;48.102;19.682;2023-08-31T12:53:55;4.15;;;1.10;;
70929;SDS011;58588;48.102;19.682;2023-08-31T12:56:57;4.13;;;1.30;;
70929;SDS011;58588;48.102;19.682;2023-08-31T12:59:59;3.92;;;1.20;;
70929;SDS011;58588;48.102;19.682;2023-08-31T13:03:01;4.10;;;1.20;;
70929;SDS011;58588;48.102;19.682;2023-08-31T13:06:04;4.38;;;1.10;;
70929;SDS011;58588;48.102;19.682;2023-08-31T13:09:06;4.50;;;1.02;;
70929;SDS011;58588;48.102;19.682;2023-08-31T13:12:09;4.27;;;1.20;;
70929;SDS011;58588;48.102;19.682;2023-08-31T13:15:11;3.85;;;1.10;;
70929;SDS011;58588;48.102;19.682;2023-08-31T13:18:13;5.38;;;1.20;;
70929;SDS011;58588;48.102;19.682;2023-08-31T13:21:16;4.03;;;1.27;;
70929;SDS011;58588;48.102;19.682;2023-08-31T13:24:18;4.15;;;1.10;;
70929;SDS011;58588;48.102;19.682;2023-08-31T13:27:21;3.57;;;1.03;;
70929;SDS011;58588;48.102;19.682;2023-08-31T13:30:23;4.72;;;1.10;;
70929;SDS011;58588;48.102;19.682;2023-08-31T13:33:25;3.30;;;0.90;;
70929;SDS011;58588;48.102;19.682;2023-08-31T13:36:30;5.05;;;1.02;;
70929;SDS011;58588;48.102;19.682;2023-08-31T13:39:33;3.22;;;0.90;;
70929;SDS011;58588;48.102;19.682;2023-08-31T13:42:37;4.37;;;1.00;;
70929;SDS011;58588;48.102;19.682;2023-08-31T13:45:54;3.50;;;0.95;;
70929;SDS011;58588;48.102;19.682;2023-08-31T13:48:55;3.95;;;1.00;;
70929;SDS011;58588;48.102;19.682;2023-08-31T13:51:59;4.32;;;1.00;;
70929;SDS011;58588;48.102;19.682;2023-08-31T13:55:01;4.68;;;1.23;;
70929;SDS011;58588;48.102;19.682;2023-08-31T13:58:05;3.63;;;1.10;;
70929;SDS011;58588;48.102;19.682;2023-08-31T14:01:09;4.10;;;1.20;;
70929;SDS011;58588;48.102;19.682;2023-08-31T14:04:13;3.90;;;1.15;;
70929;SDS011;58588;48.102;19.682;2023-08-31T14:07:17;3.85;;;1.08;;
70929;SDS011;58588;48.102;19.682;2023-08-31T14:10:19;3.90;;;1.00;;
70929;SDS011;58588;48.102;19.682;2023-08-31T14:13:21;5.17;;;1.00;;
70929;SDS011;58588;48.102;19.682;2023-08-31T14:16:23;3.95;;;1.17;;
70929;SDS011;58588;48.102;19.682;2023-08-31T14:19:25;4.00;;;1.20;;
70929;SDS011;58588;48.102;19.682;2023-08-31T14:22:28;5.50;;;1.10;;
70929;SDS011;58588;48.102;19.682;2023-08-31T14:25:33;7.60;;;1.30;;
70929;SDS011;58588;48.102;19.682;2023-08-31T14:28:35;5.07;;;1.10;;
70929;SDS011;58588;48.102;19.682;2023-08-31T14:31:37;4.18;;;1.30;;
70929;SDS011;58588;48.102;19.682;2023-08-31T14:34:39;5.20;;;1.13;;
70929;SDS011;58588;48.102;19.682;2023-08-31T14:37:42;4.60;;;1.38;;
70929;SDS011;58588;48.102;19.682;2023-08-31T14:40:44;5.95;;;1.20;;
70929;SDS011;58588;48.102;19.682;2023-08-31T14:43:46;3.80;;;1.00;;
70929;SDS011;58588;48.102;19.682;2023-08-31T14:46:49;4.80;;;1.20;;
70929;SDS011;58588;48.102;19.682;2023-08-31T14:49:59;4.50;;;1.30;;
70929;SDS011;58588;48.102;19.682;2023-08-31T14:53:02;6.30;;;1.40;;
70929;SDS011;58588;48.102;19.682;2023-08-31T14:56:04;4.05;;;1.20;;
70929;SDS011;58588;48.102;19.682;2023-08-31T14:59:06;4.97;;;1.33;;
70929;SDS011;58588;48.102;19.682;2023-08-31T15:02:08;5.95;;;1.20;;
70929;SDS011;58588;48.102;19.682;2023-08-31T15:05:10;4.18;;;1.20;;
70929;SDS011;58588;48.102;19.682;2023-08-31T15:08:14;5.65;;;1.30;;
70929;SDS011;58588;48.102;19.682;2023-08-31T15:11:15;5.00;;;1.50;;
70929;SDS011;58588;48.102;19.682;2023-08-31T15:14:17;4.93;;;1.27;;
70929;SDS011;58588;48.102;19.682;2023-08-31T15:17:19;4.90;;;1.30;;
70929;SDS011;58588;48.102;19.682;2023-08-31T15:20:21;5.85;;;1.40;;
70929;SDS011;58588;48.102;19.682;2023-08-31T15:23:26;4.53;;;1.30;;
70929;SDS011;58588;48.102;19.682;2023-08-31T15:26:28;3.90;;;1.20;;
70929;SDS011;58588;48.102;19.682;2023-08-31T15:29:29;6.20;;;1.57;;
70929;SDS011;58588;48.102;19.682;2023-08-31T15:32:34;4.47;;;1.30;;
70929;SDS011;58588;48.102;19.682;2023-08-31T15:35:36;5.10;;;1.27;;
70929;SDS011;58588;48.102;19.682;2023-08-31T15:38:39;5.40;;;1.15;;
70929;SDS011;58588;48.102;19.682;2023-08-31T15:41:41;4.30;;;1.23;;
70929;SDS011;58588;48.102;19.682;2023-08-31T15:44:45;6.37;;;1.30;;
70929;SDS011;58588;48.102;19.682;2023-08-31T15:47:47;4.57;;;1.30;;
70929;SDS011;58588;48.102;19.682;2023-08-31T15:50:49;5.30;;;1.38;;
70929;SDS011;58588;48.102;19.682;2023-08-31T15:53:53;4.18;;;1.20;;
70929;SDS011;58588;48.102;19.682;2023-08-31T15:56:55;19.67;;;2.25;;
70929;SDS011;58588;48.102;19.682;2023-08-31T15:59:57;5.50;;;1.37;;
70929;SDS011;58588;48.102;19.682;2023-08-31T16:02:59;6.15;;;1.40;;
70929;SDS011;58588;48.102;19.682;2023-08-31T16:06:01;4.47;;;1.20;;
70929;SDS011;58588;48.102;19.682;2023-08-31T16:09:07;4.80;;;1.13;;
70929;SDS011;58588;48.102;19.682;2023-08-31T16:12:09;7.43;;;1.30;;
70929;SDS011;58588;48.102;19.682;2023-08-31T16:15:11;6.47;;;1.37;;
70929;SDS011;58588;48.102;19.682;2023-08-31T16:18:13;3.72;;;1.00;;
70929;SDS011;58588;48.102;19.682;2023-08-31T16:21:15;5.00;;;1.20;;
70929;SDS011;58588;48.102;19.682;2023-08-31T16:24:18;5.47;;;1.40;;
70929;SDS011;58588;48.102;19.682;2023-08-31T16:27:20;5.78;;;1.30;;
70929;SDS011;58588;48.102;19.682;2023-08-31T16:30:22;4.97;;;1.10;;
70929;SDS011;58588;48.102;19.682;2023-08-31T16:33:23;4.82;;;1.20;;
70929;SDS011;58588;48.102;19.682;2023-08-31T16:36:26;4.85;;;1.23;;
70929;SDS011;58588;48.102;19.682;2023-08-31T16:39:29;5.10;;;1.35;;
70929;SDS011;58588;48.102;19.682;2023-08-31T16:42:31;5.13;;;1.27;;
70929;SDS011;58588;48.102;19.682;2023-08-31T16:45:33;4.40;;;1.30;;
70929;SDS011;58588;48.102;19.682;2023-08-31T16:48:35;4.70;;;1.27;;
70929;SDS011;58588;48.102;19.682;2023-08-31T16:51:37;4.53;;;1.23;;
70929;SDS011;58588;48.102;19.682;2023-08-31T16:54:41;6.05;;;1.35;;
70929;SDS011;58588;48.102;19.682;2023-08-31T16:57:43;6.07;;;1.40;;
70929;SDS011;58588;48.102;19.682;2023-08-31T17:00:45;6.20;;;1.20;;
70929;SDS011;58588;48.102;19.682;2023-08-31T17:03:46;7.30;;;1.55;;
70929;SDS011;58588;48.102;19.682;2023-08-31T17:06:48;5.97;;;1.38;;
70929;SDS011;58588;48.102;19.682;2023-08-31T17:09:52;5.90;;;1.40;;
70929;SDS011;58588;48.102;19.682;2023-08-31T17:12:54;4.45;;;1.60;;
70929;SDS011;58588;48.102;19.682;2023-08-31T17:15:58;6.37;;;1.20;;
70929;SDS011;58588;48.102;19.682;2023-08-31T17:19:00;7.55;;;1.40;;
70929;SDS011;58588;48.102;19.682;2023-08-31T17:22:02;4.25;;;1.35;;
70929;SDS011;58588;48.102;19.682;2023-08-31T17:25:06;5.97;;;1.40;;
70929;SDS011;58588;48.102;19.682;2023-08-31T17:28:08;5.03;;;1.33;;
70929;SDS011;58588;48.102;19.682;2023-08-31T17:31:10;4.23;;;1.27;;
70929;SDS011;58588;48.102;19.682;2023-08-31T17:34:12;4.97;;;1.60;;
70929;SDS011;58588;48.102;19.682;2023-08-31T17:37:16;5.07;;;1.50;;
70929;SDS011;58588;48.102;19.682;2023-08-31T17:40:19;5.10;;;1.40;;
70929;SDS011;58588;48.102;19.682;2023-08-31T17:43:21;4.82;;;1.40;;
70929;SDS011;58588;48.102;19.682;2023-08-31T17:46:23;4.97;;;1.30;;
70929;SDS011;58588;48.102;19.682;2023-08-31T17:49:24;4.60;;;1.45;;
70929;SDS011;58588;48.102;19.682;2023-08-31T17:52:26;4.63;;;1.40;;
70929;SDS011;58588;48.102;19.682;2023-08-31T17:55:30;6.80;;;1.60;;
70929;SDS011;58588;48.102;19.682;2023-08-31T17:58:32;5.50;;;1.63;;
70929;SDS011;58588;48.102;19.682;2023-08-31T18:01:34;4.80;;;1.47;;
70929;SDS011;58588;48.102;19.682;2023-08-31T18:04:36;5.35;;;1.45;;
70929;SDS011;58588;48.102;19.682;2023-08-31T18:07:38;5.03;;;1.30;;